Airfield :
LOGIN :

Register | Disclaimer

   EN    FR    IT 

 










Legend :    VFR   Marginal VFR   IFR   Intensive IFR   Very Intensive IFR
Visi :
Ceiling :
>= 8 km
>= 3000ft
5 to 8 km
1000 to 3000 ft
1500m to 5 km
500 to 1000 ft
800 to 1500m
200 to 500 ft
< 800m
< 200 ft
Symbols :   Thunderstorms  Fog  Heavy snow  Heavy precipitations  Wind > 20 kt
SIGMETs :     Misc.  Thunderstorms  Icing  Turbulence  Mountain Waves  Volcanic Ashes







- Airport Elevation : 100 ft
- IATA code : DCI


LIED - Decimomannu Air Base

CURRENT METAR :
  • 222255Z 22006KT 7000 FEW020 SCT040 15/13 Q1000 RMK BKN BKN100 VIS MIN 7000 WIND THR35 /////KT WIND THR17 /////KT WHT

EXPIRED METARs :
  • 222155Z 12004KT 6000 FEW010 SCT020 BKN040 16/14 Q0999 RMK OVC VIS MIN 6000 WIND THR35 /////KT WIND THR17 /////KT WHT
  • 222055Z 16005KT 6000 FEW010 SCT020 BKN040 16/14 Q0999 RMK OVC VIS MIN 6000 WIND THR35 /////KT WIND THR17 /////KT WHT

TAF TAF LIED
Valid from the 23 at 00:00 until the 23 at 09:00 UTC


222300Z 2300/2309 19010KT 7000 SCT012 SCT035
TEMPO 2300/2304 5000 RA BKN025
No reported NOTAMs for that airfield.
2 SIGMETs reported for the Roma FIR (LIRR) :
 
Embedded thunderstorms
LIRR SIGMET 9 VALID 222005/230005 LIIB
LIRR ROMA FIR EMBD TS FCST WI N3833 E00918 - N3847 E01307 - N3843 E01439 - N3909 E01552 - N4113 E01328 - N4255 E01025 - N3833 E00918 TOP ABV FL350 STNR WKN=
Severe turbulence
LIRR SIGMET 8 VALID 222005/230005 LIIB
LIRR ROMA FIR SEV TURB FCST WI N3900 E00805 - N4250 E01304 - N4122 E01423 - N4107 E01507 - N3859 E01622 - N3626 E01708 - N3628 E01129 - N3728 E01128 - N3900 E00805 SFC/FL120 STNR NC=



MET'MAP, your aeronautical weather chart ! - Copyright ORBIFLY December 2007 - Disclaimer

ORBIFLY MET'MAP TEAM :

Programming & Development : Alexandra Zaïnal
Concept & Development : Baudouin d'Aumeries
Co-Development & Prog : Marc-Olivier Méhu
Technical & hardware support : Manuel Goepfert

Contact : metmap@orbifly.com




SOURCES & CREDITS :

   NOAA